createdAt,value
2018-12-26T00:00:42.546Z,8.43
2018-12-26T00:03:12.772Z,8.44
2018-12-26T00:08:30.852Z,8.47
2018-12-26T00:11:00.283Z,8.47
2018-12-26T00:13:29.681Z,8.44
2018-12-26T00:15:59.282Z,8.33
2018-12-26T00:18:28.863Z,8.45
2018-12-26T00:20:58.366Z,8.42
2018-12-26T00:23:27.826Z,8.21
2018-12-26T00:26:01.594Z,8.18
2018-12-26T00:28:28.418Z,8.09
2018-12-26T00:30:57.950Z,8.21
2018-12-26T00:33:27.455Z,8.14
2018-12-26T00:35:56.846Z,8.06
2018-12-26T00:38:26.405Z,8.07
2018-12-26T00:41:14.953Z,8.04
2018-12-26T00:43:44.401Z,8.02
2018-12-26T00:46:13.797Z,7.95
2018-12-26T00:48:43.242Z,8.01
2018-12-26T00:51:12.774Z,7.91
2018-12-26T00:53:42.571Z,7.77
2018-12-26T00:56:31.478Z,7.79
2018-12-26T00:59:23.038Z,7.75
2018-12-26T01:01:52.539Z,7.75
2018-12-26T01:04:21.926Z,7.76
2018-12-26T01:06:51.436Z,7.79
2018-12-26T01:09:20.962Z,7.80
2018-12-26T01:11:50.354Z,7.85
2018-12-26T01:14:19.762Z,7.79
2018-12-26T01:16:49.305Z,7.89
2018-12-26T01:19:18.692Z,7.93
2018-12-26T01:21:48.086Z,7.87
2018-12-26T01:26:58.887Z,7.91
2018-12-26T01:32:09.912Z,7.78
2018-12-26T01:34:39.393Z,7.81
2018-12-26T01:37:08.790Z,7.79
2018-12-26T01:39:38.225Z,7.72
2018-12-26T01:42:07.861Z,7.68
2018-12-26T01:44:37.824Z,7.81
2018-12-26T01:47:07.318Z,7.94
2018-12-26T01:49:36.764Z,7.99
2018-12-26T01:52:06.198Z,7.99
2018-12-26T01:54:35.584Z,7.99
2018-12-26T01:57:05.102Z,8.09
2018-12-26T01:59:34.548Z,8.00
2018-12-26T02:02:04.082Z,7.92
2018-12-26T02:04:33.659Z,7.84
2018-12-26T02:07:03.197Z,7.83
2018-12-26T02:09:32.588Z,7.87
2018-12-26T02:12:02.145Z,7.81
2018-12-26T02:14:31.576Z,7.91
2018-12-26T02:17:01.031Z,7.96
2018-12-26T02:19:30.651Z,7.96
2018-12-26T02:22:00.079Z,7.91
2018-12-26T02:24:29.493Z,7.99
2018-12-26T02:26:58.929Z,8.09
2018-12-26T02:29:28.332Z,7.94
2018-12-26T02:31:57.853Z,7.93
2018-12-26T02:34:38.809Z,7.93
2018-12-26T02:37:08.272Z,8.03
2018-12-26T02:39:37.820Z,8.00
2018-12-26T02:42:07.347Z,7.87
2018-12-26T02:44:36.879Z,8.00
2018-12-26T02:47:06.355Z,8.09
2018-12-26T02:49:37.603Z,8.13
2018-12-26T02:52:26.034Z,8.08
2018-12-26T02:57:37.369Z,7.98
2018-12-26T03:00:07.288Z,8.00
2018-12-26T03:02:55.637Z,8.01
2018-12-26T03:05:25.162Z,7.97
2018-12-26T03:07:54.574Z,8.02
2018-12-26T03:10:23.969Z,8.18
2018-12-26T03:13:12.431Z,8.17
2018-12-26T03:15:42.843Z,8.17
2018-12-26T03:18:12.769Z,8.16
2018-12-26T03:21:01.756Z,8.19
2018-12-26T03:23:31.179Z,8.17
2018-12-26T03:26:00.546Z,8.12
2018-12-26T03:28:48.931Z,8.05
2018-12-26T03:31:18.340Z,8.12
2018-12-26T03:33:47.734Z,8.04
2018-12-26T03:36:28.629Z,8.04
2018-12-26T03:38:58.031Z,7.98
2018-12-26T03:41:27.564Z,8.02
2018-12-26T03:43:57.170Z,7.97
2018-12-26T03:46:45.877Z,7.88
2018-12-26T03:49:15.441Z,7.95
2018-12-26T03:51:44.792Z,7.82
2018-12-26T03:54:14.185Z,7.94
2018-12-26T03:56:43.852Z,7.97
2018-12-26T03:59:32.287Z,7.98
2018-12-26T04:02:01.726Z,8.00
2018-12-26T04:04:31.134Z,8.02
2018-12-26T04:07:00.530Z,7.97
2018-12-26T04:09:30.089Z,7.99
2018-12-26T04:11:59.622Z,8.03
2018-12-26T04:14:29.007Z,8.07
2018-12-26T04:16:58.602Z,8.12
2018-12-26T04:22:16.689Z,8.08
2018-12-26T04:30:28.212Z,8.06
2018-12-26T04:32:57.779Z,7.99
2018-12-26T04:35:27.179Z,8.00
2018-12-26T04:40:45.049Z,8.08
2018-12-26T04:43:14.425Z,8.00
2018-12-26T04:45:43.862Z,8.05
2018-12-26T04:48:13.385Z,8.15
2018-12-26T04:50:42.832Z,8.16
2018-12-26T04:53:12.860Z,8.17
2018-12-26T04:55:43.219Z,8.16
2018-12-26T04:58:13.164Z,8.21
2018-12-26T05:00:43.086Z,8.19
2018-12-26T05:05:54.249Z,8.27
2018-12-26T05:08:23.696Z,8.21
2018-12-26T05:11:12.043Z,8.20
2018-12-26T05:13:41.604Z,8.17
2018-12-26T05:16:10.997Z,8.22
2018-12-26T05:18:59.401Z,8.29
2018-12-26T05:21:28.929Z,8.24
2018-12-26T05:23:58.341Z,8.22
2018-12-26T05:26:27.871Z,8.20
2018-12-26T05:28:57.261Z,8.33
2018-12-26T05:31:26.674Z,8.33
2018-12-26T05:34:15.144Z,8.32
2018-12-26T05:37:03.594Z,8.35
2018-12-26T05:42:14.510Z,8.39
2018-12-26T05:47:25.766Z,8.22
2018-12-26T05:50:14.316Z,8.40
2018-12-26T05:52:46.209Z,8.41
2018-12-26T05:55:15.642Z,8.48
2018-12-26T05:57:45.142Z,8.43
2018-12-26T06:00:14.558Z,8.26
2018-12-26T06:03:03.054Z,8.43
2018-12-26T06:05:32.531Z,8.45
2018-12-26T06:08:01.969Z,8.44
2018-12-26T06:10:31.407Z,8.35
2018-12-26T06:13:00.805Z,8.41
2018-12-26T06:15:30.189Z,8.46
2018-12-26T06:17:59.756Z,8.50
2018-12-26T06:20:29.154Z,8.49
2018-12-26T06:22:58.542Z,8.55
2018-12-26T06:25:28.082Z,8.53
2018-12-26T06:30:46.003Z,8.60
2018-12-26T06:33:15.382Z,8.67
2018-12-26T06:35:44.801Z,8.62
2018-12-26T06:38:14.314Z,8.65
2018-12-26T06:40:43.879Z,8.69
2018-12-26T06:43:13.271Z,8.78
2018-12-26T06:45:43.216Z,8.88
2018-12-26T06:48:13.015Z,8.94
2018-12-26T06:50:42.969Z,8.89
2018-12-26T06:55:54.315Z,8.86
2018-12-26T06:58:23.766Z,8.85
2018-12-26T07:00:53.198Z,8.79
2018-12-26T07:03:22.595Z,8.85
2018-12-26T07:05:52.057Z,8.90
2018-12-26T07:08:21.439Z,8.88
2018-12-26T07:10:50.835Z,8.91
2018-12-26T07:16:01.751Z,9.07
2018-12-26T07:18:31.199Z,9.05
2018-12-26T07:21:00.580Z,8.97
2018-12-26T07:23:49.036Z,8.85
2018-12-26T07:26:18.461Z,8.90
2018-12-26T07:28:47.856Z,8.91
2018-12-26T07:31:17.423Z,9.06
2018-12-26T07:33:46.820Z,9.12
2018-12-26T07:36:16.204Z,9.14
2018-12-26T07:38:45.651Z,9.11
2018-12-26T07:41:15.076Z,9.13
2018-12-26T07:43:44.579Z,9.15
2018-12-26T07:46:14.196Z,9.15
2018-12-26T07:48:43.582Z,9.12
2018-12-26T07:51:13.159Z,9.12
2018-12-26T07:53:43.288Z,9.19
2018-12-26T07:56:13.112Z,9.20
2018-12-26T07:58:43.222Z,9.16
2018-12-26T08:03:55.041Z,9.28
2018-12-26T08:09:07.242Z,9.12
2018-12-26T08:11:36.775Z,9.08
2018-12-26T08:14:06.234Z,9.11
2018-12-26T08:16:54.622Z,9.09
2018-12-26T08:19:24.086Z,9.13
2018-12-26T08:21:53.483Z,9.07
2018-12-26T08:24:23.083Z,9.04
2018-12-26T08:26:53.625Z,9.09
2018-12-26T08:29:23.688Z,9.09
2018-12-26T08:31:53.146Z,8.91
2018-12-26T08:34:22.548Z,8.98
2018-12-26T08:36:51.997Z,9.10
2018-12-26T08:39:21.482Z,9.17
2018-12-26T08:41:50.949Z,9.23
2018-12-26T08:47:08.895Z,9.12
2018-12-26T08:49:38.292Z,9.23
2018-12-26T08:52:07.698Z,9.23
2018-12-26T08:54:37.161Z,9.21
2018-12-26T08:57:06.583Z,9.24
2018-12-26T08:59:36.036Z,9.19
2018-12-26T09:02:05.500Z,9.18
2018-12-26T09:04:53.962Z,9.28
2018-12-26T09:07:23.510Z,9.28
2018-12-26T09:10:11.913Z,9.35
2018-12-26T09:13:00.288Z,9.37
2018-12-26T09:15:29.687Z,9.40
2018-12-26T09:17:59.048Z,9.49
2018-12-26T09:20:28.522Z,9.44
2018-12-26T09:22:57.918Z,9.50
2018-12-26T09:25:27.730Z,9.47
2018-12-26T09:27:57.298Z,9.51
2018-12-26T09:30:26.775Z,9.65
2018-12-26T09:32:56.174Z,9.75
2018-12-26T09:35:25.730Z,9.72
2018-12-26T09:38:14.058Z,9.70
2018-12-26T09:40:43.740Z,9.71
2018-12-26T09:43:13.357Z,9.76
2018-12-26T09:45:43.268Z,9.78
2018-12-26T09:48:13.695Z,9.86
2018-12-26T09:50:43.312Z,9.80
2018-12-26T09:53:15.871Z,9.79
2018-12-26T09:56:05.841Z,9.78
2018-12-26T09:58:35.323Z,9.77
2018-12-26T10:03:53.318Z,9.79
2018-12-26T10:06:22.701Z,9.82
2018-12-26T10:08:52.248Z,9.79
2018-12-26T10:11:21.711Z,9.77
2018-12-26T10:13:51.272Z,9.75
2018-12-26T10:16:20.767Z,9.87
2018-12-26T10:18:50.246Z,9.91
2018-12-26T10:21:19.631Z,9.94
2018-12-26T10:23:49.045Z,9.97
2018-12-26T10:26:18.734Z,9.83
2018-12-26T10:28:48.223Z,9.84
2018-12-26T10:31:17.868Z,9.77
2018-12-26T10:34:06.736Z,9.83
2018-12-26T10:36:36.130Z,9.88
2018-12-26T10:39:44.915Z,9.97
2018-12-26T10:42:14.434Z,10.02
2018-12-26T10:44:43.869Z,9.97
2018-12-26T10:47:16.419Z,10.05
2018-12-26T10:49:45.910Z,10.01
2018-12-26T10:52:15.514Z,9.98
2018-12-26T10:54:45.074Z,10.01
2018-12-26T10:57:14.500Z,10.11
2018-12-26T10:59:43.977Z,10.04
2018-12-26T11:02:32.387Z,10.08
2018-12-26T11:05:01.940Z,10.17
2018-12-26T11:07:31.334Z,10.22
2018-12-26T11:10:00.907Z,10.27
2018-12-26T11:12:30.312Z,10.31
2018-12-26T11:14:59.716Z,10.42
2018-12-26T11:20:30.994Z,10.44
2018-12-26T11:23:00.400Z,10.49
2018-12-26T11:25:29.789Z,10.42
2018-12-26T11:27:59.260Z,10.44
2018-12-26T11:30:28.711Z,10.51
2018-12-26T11:33:17.263Z,10.52
2018-12-26T11:35:46.664Z,10.47
2018-12-26T11:38:16.135Z,10.35
2018-12-26T11:40:45.652Z,10.36
2018-12-26T11:43:15.061Z,10.37
2018-12-26T11:45:44.529Z,10.35
2018-12-26T11:48:14.090Z,10.44
2018-12-26T11:50:54.904Z,10.50
2018-12-26T11:53:24.363Z,10.50
2018-12-26T11:55:53.894Z,10.46
2018-12-26T11:58:23.372Z,10.42
2018-12-26T12:00:53.041Z,10.54
2018-12-26T12:03:22.574Z,10.55
2018-12-26T12:05:52.009Z,10.58
2018-12-26T12:08:21.469Z,10.64
2018-12-26T12:13:32.382Z,10.72
2018-12-26T12:16:01.875Z,10.74
2018-12-26T12:18:31.302Z,10.82
2018-12-26T12:21:00.721Z,10.69
2018-12-26T12:23:30.232Z,10.70
2018-12-26T12:25:59.718Z,10.62
2018-12-26T12:28:48.203Z,10.57
2018-12-26T12:31:17.642Z,10.72
2018-12-26T12:33:46.981Z,10.66
2018-12-26T12:36:16.444Z,10.70
2018-12-26T12:38:45.892Z,10.76
2018-12-26T12:41:15.275Z,10.61
2018-12-26T12:43:44.920Z,10.67
2018-12-26T12:46:14.306Z,10.62
2018-12-26T12:48:43.818Z,10.65
2018-12-26T12:51:13.600Z,10.69
2018-12-26T12:53:43.641Z,10.74
2018-12-26T12:56:13.454Z,10.77
2018-12-26T12:58:43.543Z,10.82
2018-12-26T13:01:13.603Z,10.80
2018-12-26T13:03:46.592Z,10.77
2018-12-26T13:06:14.776Z,10.72
2018-12-26T13:08:44.180Z,10.73
2018-12-26T13:11:13.584Z,10.73
2018-12-26T13:16:24.869Z,10.79
2018-12-26T13:18:54.338Z,10.82
2018-12-26T13:21:23.715Z,10.89
2018-12-26T13:23:53.150Z,10.96
2018-12-26T13:26:22.625Z,10.91
2018-12-26T13:28:52.065Z,10.80
2018-12-26T13:31:21.532Z,10.81
2018-12-26T13:33:51.120Z,10.87
2018-12-26T13:39:09.058Z,10.95
2018-12-26T13:41:38.470Z,11.01
2018-12-26T13:44:07.877Z,10.84
2018-12-26T13:46:37.419Z,10.82
2018-12-26T13:49:06.843Z,10.86
2018-12-26T13:51:55.393Z,10.91
2018-12-26T13:54:24.873Z,10.90
2018-12-26T13:56:54.285Z,10.86
2018-12-26T13:59:42.866Z,10.78
2018-12-26T14:02:12.275Z,10.79
2018-12-26T14:07:43.627Z,10.81
2018-12-26T14:10:13.703Z,10.79
2018-12-26T14:12:43.649Z,10.73
2018-12-26T14:15:13.720Z,10.81
2018-12-26T14:17:43.749Z,10.88
2018-12-26T14:20:13.628Z,10.81
2018-12-26T14:22:43.672Z,10.83
2018-12-26T14:25:13.818Z,10.78
2018-12-26T14:27:43.656Z,10.81
2018-12-26T14:30:13.707Z,10.87
2018-12-26T14:32:43.755Z,10.83
2018-12-26T14:38:02.176Z,10.86
2018-12-26T14:40:31.783Z,10.85
2018-12-26T14:43:01.181Z,10.84
2018-12-26T14:45:30.702Z,10.90
2018-12-26T14:48:00.092Z,10.95
2018-12-26T14:50:29.478Z,10.90
2018-12-26T14:52:59.082Z,10.96
2018-12-26T14:55:28.501Z,10.99
2018-12-26T14:57:57.970Z,10.97
2018-12-26T15:00:27.478Z,11.01
2018-12-26T15:02:57.020Z,10.98
2018-12-26T15:05:26.480Z,11.03
2018-12-26T15:08:14.969Z,11.07
2018-12-26T15:10:44.396Z,11.05
2018-12-26T15:13:13.833Z,11.02
2018-12-26T15:15:43.990Z,11.03
2018-12-26T15:18:13.734Z,11.11
2018-12-26T15:21:02.782Z,11.15
2018-12-26T15:23:32.174Z,11.18
2018-12-26T15:28:50.070Z,11.28
2018-12-26T15:31:19.488Z,11.29
2018-12-26T15:33:48.908Z,11.19
2018-12-26T15:36:18.495Z,11.20
2018-12-26T15:38:47.907Z,11.10
2018-12-26T15:41:17.329Z,11.11
2018-12-26T15:43:46.796Z,11.07
2018-12-26T15:46:16.248Z,11.12
2018-12-26T15:48:45.718Z,11.16
2018-12-26T15:51:15.260Z,11.26
2018-12-26T15:54:03.508Z,11.24
2018-12-26T15:56:33.089Z,11.11
2018-12-26T15:59:21.515Z,11.22
2018-12-26T16:04:32.380Z,11.27
2018-12-26T16:07:01.867Z,11.21
2018-12-26T16:09:31.281Z,11.26
2018-12-26T16:12:00.682Z,11.22
2018-12-26T16:14:30.203Z,11.16
2018-12-26T16:16:59.721Z,11.16
2018-12-26T16:19:48.265Z,11.25
2018-12-26T16:22:18.051Z,11.22
2018-12-26T16:24:47.464Z,11.22
2018-12-26T16:27:16.895Z,11.28
2018-12-26T16:29:46.361Z,11.23
2018-12-26T16:32:15.769Z,11.24
2018-12-26T16:34:45.334Z,11.19
2018-12-26T16:37:14.732Z,11.24
2018-12-26T16:39:44.130Z,11.31
2018-12-26T16:42:13.904Z,11.28
2018-12-26T16:44:43.943Z,11.34
2018-12-26T16:47:13.925Z,11.34
2018-12-26T16:49:43.849Z,11.27
2018-12-26T16:52:13.860Z,11.24
2018-12-26T16:54:43.869Z,11.27
2018-12-26T16:57:14.029Z,11.22
2018-12-26T16:59:43.950Z,11.30
2018-12-26T17:02:14.042Z,11.27
2018-12-26T17:04:44.124Z,11.21
2018-12-26T17:07:13.909Z,11.19
2018-12-26T17:12:32.369Z,11.24
2018-12-26T17:15:01.778Z,11.23
2018-12-26T17:17:31.211Z,11.22
2018-12-26T17:20:00.684Z,11.19
2018-12-26T17:22:48.996Z,11.16
2018-12-26T17:28:19.574Z,11.06
2018-12-26T17:31:04.328Z,11.15
2018-12-26T17:33:31.882Z,11.21
2018-12-26T17:36:01.273Z,11.22
2018-12-26T17:38:30.884Z,11.11
2018-12-26T17:41:19.297Z,11.10
2018-12-26T17:43:48.820Z,10.98
2018-12-26T17:46:18.248Z,10.94
2018-12-26T17:49:06.620Z,10.99
2018-12-26T17:52:06.841Z,11.02
2018-12-26T17:54:58.921Z,11.05
2018-12-26T17:57:50.834Z,11.10
2018-12-26T18:00:57.947Z,11.07
2018-12-26T18:03:27.450Z,11.07
2018-12-26T18:05:56.838Z,10.98
2018-12-26T18:08:26.362Z,10.94
2018-12-26T18:10:55.767Z,10.92
2018-12-26T18:16:26.889Z,10.88
2018-12-26T18:18:56.319Z,10.79
2018-12-26T18:21:25.732Z,10.76
2018-12-26T18:23:55.284Z,10.75
2018-12-26T18:26:43.535Z,10.75
2018-12-26T18:29:14.123Z,10.70
2018-12-26T18:31:44.053Z,10.66
2018-12-26T18:34:14.080Z,10.63
2018-12-26T18:39:25.800Z,10.72
2018-12-26T18:41:55.218Z,10.72
2018-12-26T18:44:24.669Z,10.64
2018-12-26T18:46:54.188Z,10.69
2018-12-26T18:49:23.690Z,10.68
2018-12-26T18:51:53.088Z,10.64
2018-12-26T18:54:22.532Z,10.64
2018-12-26T18:56:51.915Z,10.43
2018-12-26T18:59:21.312Z,10.29
2018-12-26T19:01:50.748Z,10.40
2018-12-26T19:04:20.204Z,10.25
2018-12-26T19:06:49.815Z,10.29
2018-12-26T19:09:19.284Z,10.33
2018-12-26T19:11:48.680Z,10.34
2018-12-26T19:14:49.225Z,10.31
2018-12-26T19:17:29.835Z,10.37
2018-12-26T19:19:59.221Z,10.34
2018-12-26T19:22:28.737Z,10.39
2018-12-26T19:24:58.116Z,10.36
2018-12-26T19:30:40.493Z,10.57
2018-12-26T19:33:40.848Z,10.40
2018-12-26T19:36:41.193Z,10.39
2018-12-26T19:39:10.612Z,10.29
2018-12-26T19:41:40.066Z,10.35
2018-12-26T19:46:51.010Z,10.49
2018-12-26T19:49:20.529Z,10.38
2018-12-26T19:51:49.923Z,10.35
2018-12-26T19:54:19.310Z,10.40
2018-12-26T19:56:48.944Z,10.35
2018-12-26T19:59:18.348Z,10.34
2018-12-26T20:01:48.294Z,10.27
2018-12-26T20:04:18.948Z,10.13
2018-12-26T20:10:08.814Z,10.21
2018-12-26T20:16:17.700Z,10.08
2018-12-26T20:18:57.436Z,10.11
2018-12-26T20:22:06.140Z,10.17
2018-12-26T20:30:36.161Z,10.11
2018-12-26T20:33:05.666Z,10.04
2018-12-26T20:35:54.007Z,10.00
2018-12-26T20:39:02.801Z,10.10
2018-12-26T20:41:42.534Z,10.00
2018-12-26T20:44:51.234Z,9.95
2018-12-26T20:47:20.651Z,10.06
2018-12-26T20:52:50.966Z,10.03
2018-12-26T20:58:54.874Z,9.85
2018-12-26T21:01:24.283Z,9.84
2018-12-26T21:04:32.994Z,9.68
2018-12-26T21:07:13.911Z,9.79
2018-12-26T21:09:44.353Z,9.76
2018-12-26T21:15:27.979Z,9.79
2018-12-26T21:17:57.621Z,9.79
2018-12-26T21:23:42.364Z,9.86
2018-12-26T21:26:11.963Z,9.84
2018-12-26T21:29:00.385Z,9.76
2018-12-26T21:31:31.800Z,9.81
2018-12-26T21:34:00.968Z,9.80
2018-12-26T21:36:49.428Z,9.86
2018-12-26T21:39:18.978Z,9.79
2018-12-26T21:41:48.369Z,9.88
2018-12-26T21:44:57.084Z,9.73
2018-12-26T21:50:57.985Z,9.58
2018-12-26T21:53:27.382Z,9.63
2018-12-26T21:55:56.987Z,9.70
2018-12-26T22:01:49.598Z,9.68
2018-12-26T22:04:19.012Z,9.64
2018-12-26T22:06:48.520Z,9.67
2018-12-26T22:11:59.643Z,9.78
2018-12-26T22:14:29.244Z,9.67
2018-12-26T22:17:10.279Z,9.77
2018-12-26T22:19:39.805Z,9.62
2018-12-26T22:22:09.395Z,9.78
2018-12-26T22:27:39.457Z,9.78
2018-12-26T22:30:49.302Z,9.75
2018-12-26T22:33:18.764Z,9.79
2018-12-26T22:36:27.724Z,9.89
2018-12-26T22:38:57.121Z,9.88
2018-12-26T22:41:57.072Z,9.82
2018-12-26T22:44:57.070Z,9.83
2018-12-26T22:50:18.247Z,9.92
2018-12-26T22:56:08.535Z,9.86
2018-12-26T22:59:09.139Z,9.75
2018-12-26T23:02:09.243Z,9.80
2018-12-26T23:04:48.981Z,9.70
2018-12-26T23:10:51.169Z,9.69
2018-12-26T23:13:20.816Z,9.76
2018-12-26T23:15:50.340Z,9.69
2018-12-26T23:18:20.871Z,9.58
2018-12-26T23:20:50.314Z,9.60
2018-12-26T23:23:19.717Z,9.61
2018-12-26T23:28:31.014Z,9.71
2018-12-26T23:34:12.423Z,9.53
2018-12-26T23:36:41.946Z,9.52
2018-12-26T23:39:11.409Z,9.53
2018-12-26T23:41:40.795Z,9.46
2018-12-26T23:47:30.814Z,9.32
2018-12-26T23:50:11.363Z,9.27
2018-12-26T23:52:40.738Z,9.40
2018-12-26T23:58:08.833Z,9.23
